South Sound, Washington
Current Conditions -  °F | °C
As of 3:06 AM on Friday 24 Oct 2014 (Local Time) from KOLM Reporting Station
Broken Clouds Broken Clouds  
Wind Chill: 47°   Ceiling: 2000
Heat Index: 47°   Visibility: 10mi
Dew Point: 46°   Wind: 0mph
Humidity: 97%   Direction: NA
Pressure: 30.03"   Gusts: NA
Location:  46.9755°N, 122.872°W
Report Text: KOLM 241006Z AUTO 00000KT 10SM BKN020 BKN050 08/08 A3003 RMK AO2 T00830078
Loading
Personal Weather Stations






























Interactive Weather Map
Tropical Storm Tracking
New forecast layout! Learn more

10-Day Weather Forecast

Advertisements
Track Severe Weather on mobile